Time;durP1;ratioP1;P1;durP2;ratioP2;P2;SDS_P1;SDS_P2;PMS_P1;PMS_P2;Temp;Humidity;BMP_temperature;BMP_pressure;BME280_temperature;BME280_humidity;BME280_pressure;Samples;Min_cycle;Max_cycle;Signal;HPM_P1;HPM_P2
2023/07/26 00:00:41;;;;;;;19.52;6.70;;;;;;;27.55;55.08;98529.09;3109891;28;20056;-72
2023/07/26 00:02:12;;;;;;;13.27;6.72;;;;;;;27.54;55.29;98527.44;3109993;28;20443;-73
2023/07/26 00:03:45;;;;;;;12.40;6.45;;;;;;;27.54;55.27;98531.94;3110053;28;20046;-72
2023/07/26 00:05:16;;;;;;;15.77;6.80;;;;;;;27.49;55.06;98529.09;3109381;28;20061;-73
2023/07/26 00:06:48;;;;;;;15.57;6.63;;;;;;;27.52;54.87;98526.00;3109418;28;20450;-72
2023/07/26 00:08:20;;;;;;;13.02;6.25;;;;;;;27.53;55.02;98523.13;3099406;28;20058;-72
2023/07/26 00:09:51;;;;;;;21.70;7.20;;;;;;;27.56;54.64;98513.84;3097375;28;20380;-72
2023/07/26 00:11:23;;;;;;;14.38;6.40;;;;;;;27.52;54.66;98518.81;3102313;28;20049;-73
2023/07/26 00:12:53;;;;;;;13.68;6.03;;;;;;;27.53;54.56;98515.09;3109576;28;20450;-72
2023/07/26 00:14:25;;;;;;;12.50;6.90;;;;;;;27.52;54.32;98507.31;3109260;28;20064;-72
2023/07/26 00:15:56;;;;;;;14.98;7.03;;;;;;;27.52;54.51;98513.47;3102346;28;20061;-72
2023/07/26 00:17:28;;;;;;;15.70;6.45;;;;;;;27.51;54.71;98505.63;3098926;28;20439;-72
2023/07/26 00:19:01;;;;;;;15.23;6.85;;;;;;;27.47;55.04;98499.06;3109561;28;20049;-72
2023/07/26 00:20:32;;;;;;;;;;;;;;;27.29;55.33;98505.09;3110200;28;20050;-72
2023/07/26 00:22:04;;;;;;;15.35;7.50;;;;;;;27.33;55.28;98501.78;3105991;28;19922;-72
2023/07/26 00:23:36;;;;;;;19.05;6.95;;;;;;;27.32;55.04;98489.44;3097653;28;20065;-72
2023/07/26 00:25:07;;;;;;;15.77;6.57;;;;;;;27.39;54.96;98508.13;3097284;28;20222;-72
2023/07/26 00:26:39;;;;;;;11.95;6.78;;;;;;;27.39;55.32;98508.13;3107265;28;20058;-72
2023/07/26 00:28:09;;;;;;;12.63;7.15;;;;;;;27.34;55.16;98507.97;3109709;28;20444;-73
2023/07/26 00:29:41;;;;;;;18.95;6.93;;;;;;;27.32;55.29;98500.13;3109532;28;20135;-73
2023/07/26 00:31:12;;;;;;;14.43;5.90;;;;;;;27.31;55.86;98500.34;3107924;28;20053;-76
2023/07/26 00:32:44;;;;;;;12.20;6.93;;;;;;;27.28;55.83;98504.28;3107796;28;20054;-72
2023/07/26 00:34:17;;;;;;;13.52;6.93;;;;;;;27.26;56.04;98500.97;3105804;28;20053;-71
2023/07/26 00:35:48;;;;;;;;;;;;;;;27.03;56.09;98504.03;3103432;28;20486;-72
2023/07/26 00:37:20;;;;;;;13.27;6.70;;;;;;;27.08;56.56;98500.75;3100325;28;19972;-72
2023/07/26 00:38:50;;;;;;;13.70;6.88;;;;;;;27.08;56.60;98496.25;3097201;28;20057;-72
2023/07/26 00:40:22;;;;;;;12.23;6.45;;;;;;;27.08;56.70;98498.91;3097245;28;20047;-72
2023/07/26 00:41:53;;;;;;;12.15;7.30;;;;;;;27.06;56.89;98498.28;3099999;28;20046;-72
2023/07/26 00:43:25;;;;;;;13.15;7.10;;;;;;;27.03;56.76;98481.84;3109005;28;20446;-71
2023/07/26 00:44:56;;;;;;;15.02;7.32;;;;;;;27.03;57.11;98479.19;3108557;28;20049;-72
2023/07/26 00:46:28;;;;;;;15.20;7.43;;;;;;;26.97;56.90;98473.63;3097420;28;20064;-72
2023/07/26 00:47:59;;;;;;;11.25;6.90;;;;;;;27.02;56.79;98475.69;3109400;28;20050;-72
2023/07/26 00:49:32;;;;;;;12.55;7.28;;;;;;;27.06;57.01;98476.09;3109414;28;20046;-72
2023/07/26 00:51:03;;;;;;;;;;;;;;;26.88;56.86;98488.22;3107363;28;20111;-72
2023/07/26 00:52:36;;;;;;;10.35;6.85;;;;;;;26.98;56.71;98488.66;3107531;28;19928;-72
2023/07/26 00:54:09;;;;;;;14.25;7.47;;;;;;;27.00;56.84;98475.91;3097725;28;20424;-72
2023/07/26 00:55:42;;;;;;;14.60;6.88;;;;;;;27.04;56.90;98481.66;3105879;28;20050;-72
2023/07/26 00:57:15;;;;;;;24.55;7.32;;;;;;;27.06;57.10;98481.44;3109344;28;20054;-72
2023/07/26 00:58:47;;;;;;;16.20;7.22;;;;;;;27.02;57.19;98480.22;3109122;28;20050;-72
2023/07/26 01:00:19;;;;;;;15.95;7.10;;;;;;;27.02;57.27;98480.22;3108835;28;20048;-72
2023/07/26 01:01:50;;;;;;;12.65;7.47;;;;;;;26.98;56.85;98485.97;3109224;28;20597;-72
2023/07/26 01:03:22;;;;;;;17.48;7.70;;;;;;;26.99;57.12;98484.13;3109442;28;20136;-73
2023/07/26 01:04:54;;;;;;;17.50;6.88;;;;;;;26.99;56.70;98482.28;3109166;28;20049;-73
2023/07/26 01:06:35;;;;;;;16.80;7.37;;;;;;;26.90;57.11;98472.81;3099962;28;20057;-73
2023/07/26 01:08:14;;;;;;;16.40;6.88;;;;;;;26.89;57.06;98484.56;3098453;28;20309;-72
2023/07/26 01:09:50;;;;;;;15.98;7.75;;;;;;;26.84;57.20;98478.19;3096876;28;20050;-73
2023/07/26 01:11:31;;;;;;;19.50;8.65;;;;;;;26.82;57.41;98477.56;3102068;28;20046;-73
2023/07/26 01:13:13;;;;;;;16.48;7.88;;;;;;;26.82;57.18;98481.03;3109069;28;20455;-72
2023/07/26 01:14:50;;;;;;;15.25;7.13;;;;;;;26.82;57.19;98481.03;3108883;28;20451;-72
2023/07/26 01:16:23;;;;;;;21.33;8.18;;;;;;;26.79;57.49;98489.47;3098023;28;20061;-72
2023/07/26 01:18:07;;;;;;;14.15;7.32;;;;;;;26.78;57.26;98490.50;3097135;28;20054;-72
2023/07/26 01:19:39;;;;;;;12.30;7.60;;;;;;;26.77;57.69;98495.03;3103496;28;20132;-72
2023/07/26 01:21:11;;;;;;;14.57;7.82;;;;;;;26.81;57.36;98500.78;3098836;28;20502;-72
2023/07/26 01:22:45;;;;;;;15.73;7.35;;;;;;;26.84;57.29;98499.56;3101712;28;20076;-71
2023/07/26 01:24:15;;;;;;;13.15;7.43;;;;;;;26.84;57.51;98500.38;3096970;28;20415;-72
2023/07/26 01:25:50;;;;;;;13.65;7.72;;;;;;;26.83;57.50;98492.53;3096824;28;20050;-74
2023/07/26 01:27:21;;;;;;;14.57;6.97;;;;;;;26.82;57.13;98494.41;3100510;28;20061;-73
2023/07/26 01:28:53;;;;;;;12.82;6.53;;;;;;;26.80;57.11;98492.97;3108612;28;20054;-71
2023/07/26 01:30:26;;;;;;;16.63;7.15;;;;;;;26.76;57.32;98489.88;3107906;28;20065;-71
2023/07/26 01:31:58;;;;;;;14.52;6.95;;;;;;;26.76;57.54;98488.03;3108850;28;20049;-74
2023/07/26 01:33:32;;;;;;;11.47;7.10;;;;;;;26.74;57.54;98489.28;3108533;28;20046;-71
2023/07/26 01:35:04;;;;;;;19.00;7.43;;;;;;;26.67;57.35;98489.25;3104169;28;20426;-71
2023/07/26 01:36:37;;;;;;;14.90;7.90;;;;;;;26.67;57.65;98491.13;3084833;28;20137;-72
2023/07/26 01:38:11;;;;;;;11.30;7.05;;;;;;;26.67;57.47;98494.59;3103486;28;20050;-72
2023/07/26 01:39:45;;;;;;;16.58;7.22;;;;;;;26.68;57.04;98495.41;3096548;28;20047;-72
2023/07/26 01:41:17;;;;;;;13.88;7.97;;;;;;;26.67;57.19;98493.78;3096222;28;20054;-73
2023/07/26 01:42:49;;;;;;;12.27;7.72;;;;;;;26.66;56.95;98497.50;3106834;28;20069;-74
2023/07/26 01:44:21;;;;;;;15.45;7.53;;;;;;;26.64;56.84;98499.53;3108618;28;20050;-75
2023/07/26 01:45:52;;;;;;;14.10;7.95;;;;;;;26.61;56.84;98498.09;3099791;28;20112;-75
2023/07/26 01:47:23;;;;;;;22.88;8.25;;;;;;;26.60;56.71;98490.31;3104229;28;20132;-75
2023/07/26 01:48:55;;;;;;;9.73;6.90;;;;;;;26.60;56.73;98495.63;3108540;28;20050;-75
2023/07/26 01:50:27;;;;;;;12.35;7.05;;;;;;;26.63;56.61;98500.56;3097796;28;20040;-76
2023/07/26 01:51:58;;;;;;;24.02;8.05;;;;;;;26.61;56.58;98497.28;3102147;28;20042;-75
2023/07/26 01:53:31;;;;;;;14.85;7.55;;;;;;;26.59;56.83;98499.31;3101593;28;20132;-75
2023/07/26 01:55:02;;;;;;;17.00;7.05;;;;;;;26.54;56.93;98492.75;3099473;28;20150;-76
2023/07/26 01:56:34;;;;;;;15.07;7.43;;;;;;;26.57;56.52;98498.72;3108315;28;20060;-75
2023/07/26 01:58:05;;;;;;;17.40;8.20;;;;;;;26.53;56.83;98496.47;3108162;28;20049;-75
2023/07/26 01:59:37;;;;;;;13.60;7.28;;;;;;;26.53;56.88;98490.28;3108179;28;20049;-75
2023/07/26 02:01:09;;;;;;;14.80;7.75;;;;;;;26.52;56.99;98486.78;3108572;28;20065;-75
2023/07/26 02:02:39;;;;;;;19.40;7.65;;;;;;;26.54;56.73;98498.09;3108383;28;20080;-70
2023/07/26 02:04:11;;;;;;;17.00;7.43;;;;;;;26.53;56.72;98493.78;3104527;28;20090;-71
2023/07/26 02:05:44;;;;;;;12.05;6.82;;;;;;;26.51;56.52;98489.69;3096046;28;20129;-71
2023/07/26 02:07:15;;;;;;;15.80;8.30;;;;;;;26.50;56.55;98491.53;3106464;28;20050;-71
2023/07/26 02:08:48;;;;;;;15.32;7.13;;;;;;;26.52;57.03;98497.47;3099485;28;20053;-71
2023/07/26 02:10:21;;;;;;;;;;;;;;;26.39;56.93;98504.63;3096683;28;20105;-73
2023/07/26 02:11:53;;;;;;;17.67;8.07;;;;;;;26.47;57.13;98504.41;3104114;28;19974;-73
2023/07/26 02:13:25;;;;;;;15.35;7.88;;;;;;;26.51;56.87;98500.34;3108177;28;20116;-73
2023/07/26 02:14:56;;;;;;;18.27;8.02;;;;;;;26.50;57.16;98504.03;3107823;28;20053;-73
2023/07/26 02:16:27;;;;;;;20.98;8.85;;;;;;;26.53;56.71;98506.28;3096561;28;20050;-73
2023/07/26 02:17:59;;;;;;;18.98;7.93;;;;;;;26.53;56.96;98496.47;3101317;28;20420;-73
2023/07/26 02:19:31;;;;;;;19.27;8.10;;;;;;;26.55;56.93;98497.06;3099460;28;20133;-73
2023/07/26 02:21:02;;;;;;;15.50;8.00;;;;;;;26.49;57.39;98491.69;3099451;28;20049;-73
2023/07/26 02:22:33;;;;;;;18.70;8.88;;;;;;;26.43;57.50;98498.66;3108254;28;20128;-71
2023/07/26 02:24:07;;;;;;;18.80;8.35;;;;;;;26.40;57.27;98493.72;3096999;28;20132;-72
2023/07/26 02:25:37;;;;;;;15.75;7.78;;;;;;;26.36;57.39;98497.84;3097666;28;20069;-73
2023/07/26 02:27:09;;;;;;;15.05;7.95;;;;;;;26.38;57.52;98500.28;3101441;28;20080;-71
2023/07/26 02:28:40;;;;;;;15.55;7.82;;;;;;;26.38;57.73;98500.28;3108436;28;20065;-71
2023/07/26 02:30:12;;;;;;;22.35;8.48;;;;;;;26.39;57.47;98502.78;3108000;28;20115;-70
2023/07/26 02:31:43;;;;;;;18.85;8.50;;;;;;;26.40;57.78;98503.59;3108045;28;20107;-70
2023/07/26 02:33:15;;;;;;;20.90;8.40;;;;;;;26.42;57.52;98514.88;3106204;28;20442;-70
2023/07/26 02:34:46;;;;;;;22.13;7.18;;;;;;;26.41;57.55;98508.69;3095970;28;20055;-70
2023/07/26 02:36:17;;;;;;;12.40;7.97;;;;;;;26.37;57.51;98509.31;3104669;28;20516;-70
2023/07/26 02:37:48;;;;;;;18.73;8.10;;;;;;;26.32;57.70;98510.78;3106764;28;20451;-70
2023/07/26 02:39:21;;;;;;;24.52;8.65;;;;;;;26.30;57.53;98512.81;3096100;28;20046;-70
2023/07/26 02:40:52;;;;;;;;;;;;;;;26.06;58.15;98511.50;3095919;28;20595;-70
2023/07/26 02:42:25;;;;;;;19.95;7.90;;;;;;;26.08;58.20;98506.78;3101679;28;20008;-69
2023/07/26 02:43:56;;;;;;;;;;;;;;;25.93;58.44;98511.44;3108213;28;20440;-70
2023/07/26 02:45:27;;;;;;;18.15;8.52;;;;;;;26.01;58.67;98516.63;3107507;28;19921;-70
2023/07/26 02:46:58;;;;;;;15.60;8.20;;;;;;;26.07;57.91;98515.00;3108093;28;20046;-70
2023/07/26 02:48:30;;;;;;;32.40;9.25;;;;;;;26.10;58.04;98514.59;3100950;28;20100;-70
2023/07/26 02:50:03;;;;;;;12.68;7.60;;;;;;;26.09;57.79;98513.78;3098168;28;20344;-70
2023/07/26 02:51:35;;;;;;;13.25;7.43;;;;;;;26.08;58.20;98513.97;3105614;28;20050;-70
2023/07/26 02:53:06;;;;;;;11.75;7.38;;;;;;;26.08;57.72;98512.13;3104258;28;20121;-70
2023/07/26 02:54:39;;;;;;;19.67;7.97;;;;;;;26.11;57.84;98513.56;3095736;28;20051;-70
2023/07/26 02:56:10;;;;;;;;;;;;;;;25.94;57.82;98512.25;3084407;28;20058;-72
2023/07/26 02:57:42;;;;;;;20.05;7.45;;;;;;;26.03;58.15;98509.25;3106931;28;19921;-72
2023/07/26 02:59:13;;;;;;;15.35;7.65;;;;;;;26.13;57.97;98513.38;3107708;28;20049;-72
2023/07/26 03:00:44;;;;;;;19.23;8.05;;;;;;;26.15;57.93;98516.66;3107596;28;20435;-71
2023/07/26 03:02:15;;;;;;;14.43;7.97;;;;;;;26.17;57.46;98509.28;3107304;28;20053;-70
2023/07/26 03:03:47;;;;;;;15.38;7.35;;;;;;;26.16;57.71;98518.31;3095715;28;20057;-70
2023/07/26 03:05:18;;;;;;;14.70;8.27;;;;;;;26.17;57.39;98510.09;3103558;28;20503;-70
2023/07/26 03:06:51;;;;;;;22.85;8.23;;;;;;;26.20;57.27;98509.69;3107650;28;20057;-70
2023/07/26 03:08:22;;;;;;;16.48;8.77;;;;;;;26.19;57.37;98508.06;3102113;28;20050;-71
2023/07/26 03:09:55;;;;;;;19.33;8.50;;;;;;;26.17;57.96;98509.28;3095766;28;20542;-70
2023/07/26 03:11:26;;;;;;;;;;;;;;;25.92;58.34;98501.81;3100801;28;20054;-70
2023/07/26 03:12:57;;;;;;;21.65;9.02;;;;;;;25.99;57.95;98501.81;3108040;28;20355;-70
2023/07/26 03:14:28;;;;;;;21.23;9.23;;;;;;;26.01;58.37;98505.94;3107980;28;20050;-70
2023/07/26 03:16:00;;;;;;;13.65;8.35;;;;;;;26.03;57.98;98500.41;3099683;28;20050;-70
2023/07/26 03:17:31;;;;;;;18.98;9.40;;;;;;;26.05;58.29;98501.84;3095708;28;20390;-70
2023/07/26 03:19:03;;;;;;;16.63;8.55;;;;;;;26.07;58.00;98499.81;3096632;28;20050;-70
2023/07/26 03:20:34;;;;;;;19.52;9.52;;;;;;;26.05;58.39;98491.16;3107953;28;20060;-70
2023/07/26 03:22:06;;;;;;;22.00;8.60;;;;;;;26.07;58.34;98489.13;3107846;28;20050;-70
2023/07/26 03:23:37;;;;;;;22.40;10.00;;;;;;;26.04;58.58;98486.88;3100556;28;20054;-70
2023/07/26 03:25:10;;;;;;;20.13;8.57;;;;;;;26.01;58.15;98484.59;3097764;28;20133;-73
2023/07/26 03:26:41;;;;;;;;;;;;;;;25.74;59.18;98489.00;3109165;28;20053;-72
2023/07/26 03:28:13;;;;;;;18.15;8.82;;;;;;;25.72;59.18;98474.22;3109780;28;19922;-72
2023/07/26 03:29:44;;;;;;;20.20;9.07;;;;;;;25.74;59.24;98474.84;3109897;28;20049;-72
2023/07/26 03:31:16;;;;;;;22.35;9.25;;;;;;;25.72;59.17;98476.88;3108636;28;20053;-71
2023/07/26 03:32:46;;;;;;;29.20;10.23;;;;;;;25.69;59.29;98485.28;3098485;28;20062;-71
2023/07/26 03:34:18;;;;;;;20.45;9.65;;;;;;;25.69;58.91;98490.59;3104213;28;20042;-72
2023/07/26 03:35:49;;;;;;;14.48;8.75;;;;;;;25.65;59.35;98479.53;3109628;28;20577;-72
2023/07/26 03:37:21;;;;;;;19.40;9.15;;;;;;;25.63;58.80;98479.72;3109881;28;20058;-71
2023/07/26 03:38:52;;;;;;;19.15;8.95;;;;;;;25.64;58.84;98476.03;3100242;28;20050;-70
2023/07/26 03:40:25;;;;;;;23.25;8.90;;;;;;;25.67;58.63;98473.97;3097651;28;20052;-69
2023/07/26 03:41:55;;;;;;;;;;;;;;;25.48;59.06;98476.34;3100785;28;20459;-69
2023/07/26 03:43:27;;;;;;;26.95;9.82;;;;;;;25.57;58.87;98469.03;3109874;28;20008;-72
2023/07/26 03:44:58;;;;;;;16.90;8.43;;;;;;;25.63;58.93;98477.03;3109268;28;20054;-72
2023/07/26 03:46:30;;;;;;;20.45;9.00;;;;;;;25.65;58.95;98468.84;3105665;28;20058;-71
2023/07/26 03:48:01;;;;;;;18.35;8.43;;;;;;;25.68;58.87;98467.66;3097996;28;20050;-70
2023/07/26 03:49:33;;;;;;;20.75;8.25;;;;;;;25.68;58.88;98468.47;3108847;28;20056;-70
2023/07/26 03:51:03;;;;;;;18.77;8.50;;;;;;;25.68;58.70;98462.31;3109782;28;20090;-69
2023/07/26 03:52:35;;;;;;;17.70;8.82;;;;;;;25.70;58.86;98470.91;3107442;28;20064;-71
2023/07/26 03:54:06;;;;;;;16.83;8.55;;;;;;;25.73;58.83;98473.19;3098203;28;20488;-71
2023/07/26 03:55:39;;;;;;;22.35;8.52;;;;;;;25.74;58.25;98462.34;3105789;28;20209;-71
2023/07/26 03:57:10;;;;;;;19.83;8.68;;;;;;;25.74;58.86;98465.00;3109529;28;20056;-71
2023/07/26 03:58:42;;;;;;;21.33;8.98;;;;;;;25.76;58.22;98476.25;3109286;28;20590;-73
2023/07/26 04:00:13;;;;;;;21.40;8.90;;;;;;;25.77;58.12;98474.44;3109271;28;20041;-73
2023/07/26 04:01:45;;;;;;;17.23;8.95;;;;;;;25.74;58.33;98465.00;3099968;28;20492;-74
2023/07/26 04:03:17;;;;;;;16.95;8.65;;;;;;;25.74;58.63;98466.84;3097747;28;20054;-73
2023/07/26 04:04:48;;;;;;;23.13;9.43;;;;;;;25.72;58.21;98460.88;3109685;28;20057;-73
2023/07/26 04:06:20;;;;;;;31.98;8.75;;;;;;;25.72;58.50;98461.69;3109498;28;20420;-73
2023/07/26 04:07:51;;;;;;;22.10;9.25;;;;;;;25.73;58.31;98471.34;3107478;28;20054;-70
2023/07/26 04:09:23;;;;;;;29.60;8.15;;;;;;;25.72;58.33;98471.53;3097801;28;20050;-74
2023/07/26 04:10:56;;;;;;;16.75;9.15;;;;;;;25.74;58.42;98477.50;3109969;28;20046;-73
2023/07/26 04:12:27;;;;;;;18.63;8.90;;;;;;;25.73;58.61;98476.66;3085683;28;20051;-74
2023/07/26 04:13:58;;;;;;;20.17;7.75;;;;;;;25.77;58.43;98482.44;3108053;28;20123;-75
2023/07/26 04:15:29;;;;;;;19.75;7.97;;;;;;;25.75;58.06;98479.16;3105419;28;20057;-77
2023/07/26 04:17:01;;;;;;;19.63;8.80;;;;;;;25.72;58.32;98474.22;3106157;28;20160;-75
2023/07/26 04:18:32;;;;;;;22.08;8.27;;;;;;;25.72;58.00;98463.53;3109573;28;20050;-70
2023/07/26 04:20:06;;;;;;;17.00;8.07;;;;;;;25.71;57.95;98462.72;3102030;28;20084;-73
2023/07/26 04:21:37;;;;;;;24.67;8.20;;;;;;;25.68;58.27;98452.47;3109205;28;20046;-71
2023/07/26 04:23:08;;;;;;;22.30;8.07;;;;;;;25.68;58.24;98464.97;3105861;28;20526;-72
2023/07/26 04:24:41;;;;;;;21.00;8.68;;;;;;;25.69;57.98;98463.94;3098180;28;20061;-73
2023/07/26 04:26:15;;;;;;;22.83;8.27;;;;;;;25.65;58.10;98460.84;3108887;28;20050;-72
2023/07/26 04:27:45;;;;;;;120.80;39.35;;;;;;;25.67;57.56;98453.47;3103630;28;20054;-74
2023/07/26 04:29:17;;;;;;;34.42;16.23;;;;;;;25.72;57.88;98458.22;3109360;28;20082;-73
2023/07/26 04:30:49;;;;;;;18.05;10.00;;;;;;;25.74;57.56;98461.50;3101751;28;20043;-75
2023/07/26 04:32:21;;;;;;;14.98;8.75;;;;;;;25.75;57.71;98455.97;3101574;28;20454;-84
2023/07/26 04:33:52;;;;;;;18.60;10.13;;;;;;;25.73;57.50;98455.34;3109332;28;20100;-73
2023/07/26 04:35:24;;;;;;;25.02;10.27;;;;;;;25.75;57.51;98447.16;3104903;28;20136;-76
2023/07/26 04:36:54;;;;;;;17.83;10.60;;;;;;;25.76;57.28;98440.78;3099582;28;20050;-75
2023/07/26 04:38:26;;;;;;;17.98;8.38;;;;;;;25.77;57.06;98440.59;3104498;28;20052;-76
2023/07/26 04:39:57;;;;;;;18.48;8.05;;;;;;;25.79;57.34;98443.03;3108302;28;20068;-81
2023/07/26 04:41:30;;;;;;;24.30;8.55;;;;;;;25.82;56.95;98440.00;3094849;28;20042;-77
2023/07/26 04:43:01;;;;;;;18.83;7.80;;;;;;;25.80;56.55;98437.53;3087867;28;20077;-76
2023/07/26 04:44:33;;;;;;;15.65;7.43;;;;;;;25.82;56.70;98432.00;3106829;28;20046;-75
2023/07/26 04:46:04;;;;;;;17.33;7.68;;;;;;;25.83;56.29;98431.81;3097048;28;20421;-72
2023/07/26 04:47:36;;;;;;;21.95;9.05;;;;;;;25.82;56.59;98422.19;3107651;28;20060;-72
2023/07/26 04:49:06;;;;;;;26.85;10.25;;;;;;;25.81;56.16;98415.16;3109165;28;20058;-74
2023/07/26 04:50:38;;;;;;;16.77;7.93;;;;;;;25.82;56.43;98426.69;3109485;28;20826;-73
2023/07/26 04:52:09;;;;;;;24.90;15.07;;;;;;;25.83;56.13;98433.69;3108953;28;20053;-72
2023/07/26 04:53:41;;;;;;;25.35;7.80;;;;;;;25.86;55.99;98430.59;3100619;28;20448;-73
2023/07/26 04:55:12;;;;;;;17.25;7.38;;;;;;;25.90;55.99;98434.50;3102468;28;20049;-77
2023/07/26 04:56:45;;;;;;;43.58;21.25;;;;;;;25.93;55.97;98439.44;3109327;28;20534;-75
2023/07/26 04:58:15;;;;;;;;;;;;;;;25.76;55.74;98438.13;3109376;28;20112;-78
2023/07/26 04:59:47;;;;;;;14.55;7.03;;;;;;;25.83;55.66;98439.81;3099782;28;20428;-73
2023/07/26 05:01:23;;;;;;;12.52;6.97;;;;;;;25.93;55.65;98438.63;3096924;28;20042;-75
2023/07/26 05:02:56;;;;;;;14.60;7.65;;;;;;;25.97;55.60;98440.69;3096856;28;20201;-80
2023/07/26 05:04:27;;;;;;;16.40;7.30;;;;;;;26.00;55.29;98442.97;3097745;28;20140;-76
2023/07/26 05:05:59;;;;;;;15.07;6.80;;;;;;;26.08;55.35;98455.28;3108538;28;20062;-76
2023/07/26 05:07:30;;;;;;;16.40;7.47;;;;;;;26.12;54.74;98442.34;3103197;28;20160;-79
2023/07/26 05:09:02;;;;;;;18.85;7.40;;;;;;;26.20;54.92;98439.50;3096834;28;20179;-80
2023/07/26 05:10:33;;;;;;;20.58;7.15;;;;;;;26.22;54.71;98435.59;3106548;28;20103;-80
2023/07/26 05:12:08;;;;;;;21.08;8.55;;;;;;;26.25;54.45;98442.38;3109016;28;20056;-73
2023/07/26 05:13:39;;;;;;;17.17;7.43;;;;;;;26.26;54.20;98452.84;3108986;28;20053;-76
2023/07/26 05:15:11;;;;;;;19.73;8.38;;;;;;;26.30;54.43;98458.63;3097664;28;20050;-76
2023/07/26 05:16:42;;;;;;;20.88;6.95;;;;;;;26.33;54.38;98456.34;3103622;28;20515;-73
2023/07/26 05:18:15;;;;;;;14.48;7.47;;;;;;;26.40;54.41;98468.88;3100554;28;20050;-73
2023/07/26 05:19:47;;;;;;;17.52;8.32;;;;;;;26.46;54.26;98482.22;3101724;28;20050;-73
2023/07/26 05:21:18;;;;;;;15.85;7.32;;;;;;;26.53;53.89;98496.47;3108984;28;20136;-73
2023/07/26 05:22:50;;;;;;;13.43;6.90;;;;;;;26.50;53.70;98488.84;3106548;28;20050;-74
2023/07/26 05:24:21;;;;;;;16.37;7.13;;;;;;;26.63;53.42;98497.91;3096388;28;20096;-71
2023/07/26 05:25:53;;;;;;;16.98;6.60;;;;;;;26.69;53.12;98507.75;3098782;28;20061;-70
2023/07/26 05:27:33;;;;;;;13.82;7.07;;;;;;;26.74;52.75;98494.63;3108723;28;20054;-69
2023/07/26 05:29:34;;;;;;;13.85;6.43;;;;;;;26.77;52.42;98500.38;3102230;28;20069;-72
2023/07/26 05:31:16;;;;;;;19.98;7.43;;;;;;;26.81;52.46;98506.13;3101603;28;20112;-73
2023/07/26 05:33:25;;;;;;;15.50;6.78;;;;;;;26.85;52.11;98496.66;3103158;28;20050;-73
2023/07/26 05:35:11;;;;;;;21.58;7.25;;;;;;;26.90;51.86;98506.75;3096659;28;20050;-72
2023/07/26 05:37:00;;;;;;;15.90;6.90;;;;;;;26.95;51.88;98513.09;3107328;28;20085;-70
2023/07/26 05:41:10;;;;;;;12.90;6.63;;;;;;;27.00;52.16;98509.81;3090440;28;20042;-70
2023/07/26 05:43:02;;;;;;;15.90;6.88;;;;;;;27.11;51.46;98505.69;3103244;28;20057;-71
2023/07/26 05:44:38;;;;;;;12.95;6.70;;;;;;;27.18;51.66;98515.38;3101970;28;20589;-71
2023/07/26 05:46:11;;;;;;;16.25;7.38;;;;;;;27.28;51.08;98517.63;3105635;28;20076;-71
2023/07/26 05:47:43;;;;;;;19.73;7.00;;;;;;;27.36;51.44;98528.09;3108319;28;20080;-73
2023/07/26 05:49:15;;;;;;;16.08;7.07;;;;;;;27.47;51.17;98528.50;3108271;28;20057;-74
2023/07/26 05:50:47;;;;;;;14.43;7.25;;;;;;;27.51;50.83;98524.34;3108438;28;20111;-73
2023/07/26 05:52:20;;;;;;;18.15;7.15;;;;;;;27.49;50.37;98519.22;3106300;28;20048;-74
2023/07/26 05:53:51;;;;;;;19.65;7.10;;;;;;;27.51;50.62;98511.84;3098866;28;20068;-69
2023/07/26 05:55:23;;;;;;;21.45;7.35;;;;;;;27.60;50.07;98507.06;3102303;28;20050;-71
2023/07/26 05:56:54;;;;;;;22.80;6.30;;;;;;;27.66;49.97;98503.56;3108617;28;20120;-72
2023/07/26 05:58:27;;;;;;;17.23;7.47;;;;;;;27.70;49.72;98504.78;3100893;28;20053;-74
2023/07/26 05:59:59;;;;;;;;;;;;;;;27.60;50.32;98509.75;3100787;28;20538;-76
2023/07/26 06:01:29;;;;;;;17.48;7.43;;;;;;;27.74;50.06;98508.66;3101919;28;19933;-73
2023/07/26 06:03:01;;;;;;;24.45;7.00;;;;;;;27.84;49.58;98503.72;3098546;28;20097;-72
2023/07/26 06:04:32;;;;;;;19.98;7.30;;;;;;;27.90;49.65;98494.84;3108150;28;20435;-72
2023/07/26 06:06:05;;;;;;;15.45;7.35;;;;;;;27.96;49.14;98495.84;3108272;28;20589;-73
2023/07/26 06:07:36;;;;;;;17.70;7.63;;;;;;;28.00;49.48;98488.22;3098753;28;20046;-73
2023/07/26 06:09:09;;;;;;;17.33;7.93;;;;;;;28.03;49.25;98480.56;3095442;28;20061;-72
2023/07/26 06:10:40;;;;;;;21.05;7.40;;;;;;;28.06;49.10;98471.28;3096054;28;20881;-71
2023/07/26 06:12:12;;;;;;;18.13;7.18;;;;;;;28.15;49.25;98472.69;3099613;28;20050;-73
2023/07/26 06:13:45;;;;;;;17.52;7.82;;;;;;;28.17;48.53;98475.16;3096121;28;20050;-71
2023/07/26 06:15:16;;;;;;;12.80;6.30;;;;;;;28.21;48.76;98463.78;3103635;28;20073;-73
2023/07/26 06:16:48;;;;;;;22.13;8.30;;;;;;;28.24;48.44;98468.72;3099219;28;20072;-73
2023/07/26 06:18:19;;;;;;;18.50;8.55;;;;;;;28.30;48.21;98459.81;3096155;28;20042;-72
2023/07/26 06:19:52;;;;;;;16.40;6.57;;;;;;;28.35;48.48;98461.84;3098881;28;20073;-74
2023/07/26 06:21:24;;;;;;;16.55;7.30;;;;;;;28.36;47.87;98466.97;3107692;28;20042;-73
2023/07/26 06:22:55;;;;;;;17.75;7.07;;;;;;;28.38;48.09;98465.97;3106170;28;20578;-76
2023/07/26 06:24:27;;;;;;;15.55;7.30;;;;;;;28.44;47.82;98473.16;3096518;28;20058;-74
2023/07/26 06:25:58;;;;;;;16.37;6.50;;;;;;;28.53;47.27;98466.50;3108537;28;20056;-74
2023/07/26 06:27:30;;;;;;;19.63;6.93;;;;;;;28.66;47.36;98476.28;3099770;28;20050;-76
2023/07/26 06:29:03;;;;;;;14.47;6.53;;;;;;;28.66;46.91;98487.84;3095856;28;20073;-75
2023/07/26 06:30:35;;;;;;;14.70;6.63;;;;;;;28.68;46.97;98479.56;3106813;28;20403;-75
2023/07/26 06:32:07;;;;;;;23.73;7.22;;;;;;;28.71;46.96;98469.22;3107952;28;20050;-73
2023/07/26 06:33:39;;;;;;;14.98;6.68;;;;;;;28.79;46.93;98471.63;3108112;28;20192;-74
2023/07/26 06:35:10;;;;;;;16.40;6.60;;;;;;;28.83;46.83;98463.97;3108024;28;20081;-75
2023/07/26 06:36:42;;;;;;;19.13;6.55;;;;;;;28.86;46.50;98465.41;3108099;28;20060;-76
2023/07/26 06:38:14;;;;;;;12.15;7.07;;;;;;;28.92;46.55;98462.66;3103611;28;20054;-76
2023/07/26 06:39:46;;;;;;;16.15;7.05;;;;;;;29.06;46.65;98462.56;3096087;28;20088;-76
2023/07/26 06:41:17;;;;;;;16.48;6.93;;;;;;;29.19;46.50;98460.56;3095523;28;20053;-78
2023/07/26 06:42:49;;;;;;;18.20;7.63;;;;;;;29.30;45.90;98455.53;3095947;28;20061;-75
2023/07/26 06:44:22;;;;;;;20.25;6.65;;;;;;;29.42;46.10;98449.19;3100267;28;20049;-74
2023/07/26 06:45:57;;;;;;;15.48;7.18;;;;;;;29.54;46.02;98441.19;3103362;28;20431;-75
2023/07/26 06:47:28;;;;;;;19.08;7.40;;;;;;;29.64;45.62;98441.53;3107820;28;20050;-74
2023/07/26 06:49:00;;;;;;;12.63;7.13;;;;;;;29.76;45.45;98443.44;3107893;28;20471;-74
2023/07/26 06:50:31;;;;;;;12.57;6.35;;;;;;;29.83;45.26;98436.94;3107775;28;20419;-74
2023/07/26 06:52:07;;;;;;;16.63;5.90;;;;;;;29.92;45.42;98432.91;3105459;28;20072;-75
2023/07/26 06:53:38;;;;;;;18.75;7.47;;;;;;;29.98;44.86;98436.53;3100206;28;20137;-74
2023/07/26 06:55:10;;;;;;;12.75;7.40;;;;;;;29.95;44.72;98426.25;3100019;28;20120;-73
2023/07/26 06:56:41;;;;;;;24.03;7.13;;;;;;;29.97;45.03;98429.53;3104273;28;20073;-71
2023/07/26 06:58:13;;;;;;;15.45;7.30;;;;;;;30.01;44.68;98419.97;3098459;28;20058;-76
2023/07/26 06:59:47;;;;;;;25.80;7.83;;;;;;;29.99;45.23;98416.69;3103345;28;20137;-73
2023/07/26 07:01:19;;;;;;;20.27;6.93;;;;;;;30.05;44.89;98421.16;3111927;28;20805;-72
2023/07/26 07:02:55;;;;;;;11.75;6.82;;;;;;;30.13;44.93;98407.41;3109518;28;20058;-74
2023/07/26 07:04:26;;;;;;;22.10;6.85;;;;;;;30.20;44.84;98410.00;3111964;28;20111;-73
2023/07/26 07:05:59;;;;;;;16.70;7.15;;;;;;;30.28;44.71;98420.41;3112105;28;20050;-73
2023/07/26 07:07:29;;;;;;;23.50;7.70;;;;;;;30.31;44.68;98413.78;3112054;28;20510;-72
2023/07/26 07:09:01;;;;;;;14.70;7.80;;;;;;;30.35;44.67;98414.97;3099451;28;20128;-76
2023/07/26 07:10:35;;;;;;;14.90;7.05;;;;;;;30.39;44.62;98413.44;3099449;28;20057;-79
2023/07/26 07:12:09;;;;;;;16.58;6.97;;;;;;;30.44;44.30;98404.69;3099701;28;20054;-73
2023/07/26 07:13:40;;;;;;;19.13;7.05;;;;;;;30.52;44.16;98409.72;3102667;28;20217;-72
2023/07/26 07:15:14;;;;;;;19.55;7.68;;;;;;;30.62;44.09;98411.84;3100307;28;20054;-73